Terminal Aerodrome Forecast
Issued by NWS Dallas/Fort Worth, TX

Home | Current Version | Previous Version | Text Only | Print | Product List | Glossary On
Versions: 1 2 3 4 5 6 7 8 9 10 11 12 13 14 15 16 17 18 19 20 21 22 23 24 25 26 27 28 29 30 31 32
000
FTUS44 KFWD 302327
TAFDFW
TAF
KDFW 302327Z 0100/0206 28020G30KT P6SM FEW250
     FM010100 27015KT P6SM SKC
     FM010600 26008KT P6SM SKC
     FM011500 22008KT P6SM SKC
     FM020000 13006KT P6SM SKC=

USA.gov is the U.S. government's official web portal to all federal, state and local government web resources and services.